Time;durP1;ratioP1;P1;durP2;ratioP2;P2;SDS_P1;SDS_P2;PMS_P1;PMS_P2;Temp;Humidity;BMP_temperature;BMP_pressure;BME280_temperature;BME280_humidity;BME280_pressure;Samples;Min_cycle;Max_cycle;Signal;HPM_P1;HPM_P2
2022/03/11 00:00:46;;;;;;;19.33;10.20;;;;;;;38.57;39.48;100749.59;6123606;23;20394;-76
2022/03/11 00:03:13;;;;;;;22.87;10.23;;;;;;;38.39;39.53;100740.59;6123436;23;20775;-76
2022/03/11 00:05:42;;;;;;;22.03;9.83;;;;;;;38.12;39.49;100726.09;6125196;23;20365;-74
2022/03/11 00:08:09;;;;;;;24.43;8.07;;;;;;;38.09;39.85;100731.31;6123640;23;20410;-74
2022/03/11 00:10:36;;;;;;;18.40;9.30;;;;;;;38.20;39.83;100723.75;6123426;23;20444;-74
2022/03/11 00:13:02;;;;;;;16.77;8.93;;;;;;;38.08;40.61;100721.59;6123377;23;20382;-74
2022/03/11 00:15:28;;;;;;;18.37;8.40;;;;;;;38.25;40.63;100718.19;6123358;23;20449;-74
2022/03/11 00:17:54;;;;;;;18.57;9.67;;;;;;;38.32;40.20;100713.94;6123527;23;20401;-74
2022/03/11 00:20:21;;;;;;;27.77;10.53;;;;;;;38.33;40.94;100714.75;6123318;23;20836;-76
2022/03/11 00:22:48;;;;;;;24.77;9.90;;;;;;;38.52;40.30;100706.38;6118251;23;20407;-77
2022/03/11 00:25:15;;;;;;;35.30;13.97;;;;;;;38.70;40.33;100705.31;6094109;23;20477;-76
2022/03/11 00:27:41;;;;;;;19.70;9.80;;;;;;;38.75;39.60;100710.63;6093815;23;20399;-74
2022/03/11 00:30:08;;;;;;;23.27;9.43;;;;;;;38.79;39.33;100697.22;6092650;23;20391;-74
2022/03/11 00:32:34;;;;;;;21.23;9.63;;;;;;;38.89;39.25;100691.50;6093767;23;20923;-76
2022/03/11 00:35:01;;;;;;;24.20;10.47;;;;;;;38.86;39.96;100684.81;6093921;23;20476;-74
2022/03/11 00:37:27;;;;;;;27.00;11.13;;;;;;;38.93;39.97;100681.63;6093966;23;20470;-76
2022/03/11 00:39:53;;;;;;;32.53;12.40;;;;;;;38.82;39.82;100669.47;6093991;23;20379;-76
2022/03/11 00:42:20;;;;;;;25.70;11.90;;;;;;;38.70;40.45;100668.16;6093474;23;20391;-76
2022/03/11 00:44:46;;;;;;;26.80;11.53;;;;;;;38.76;41.23;100671.53;6095673;23;20557;-74
2022/03/11 00:47:12;;;;;;;26.50;15.53;;;;;;;38.72;40.67;100662.44;6093970;23;20398;-74
2022/03/11 00:49:38;;;;;;;25.33;11.17;;;;;;;38.64;40.89;100653.16;6093862;23;20391;-74
2022/03/11 00:52:05;;;;;;;26.63;11.67;;;;;;;38.60;41.19;100654.88;6093725;23;20450;-74
2022/03/11 00:54:31;;;;;;;25.23;13.70;;;;;;;38.48;41.75;100656.59;6093669;23;20426;-74
2022/03/11 00:56:57;;;;;;;29.17;13.37;;;;;;;38.48;41.84;100649.28;6093728;23;20788;-74
2022/03/11 00:59:24;;;;;;;22.57;12.03;;;;;;;38.53;41.57;100643.72;6093788;23;20391;-74
2022/03/11 01:01:50;;;;;;;35.70;16.00;;;;;;;38.43;41.56;100642.09;6092398;23;20771;-76
2022/03/11 01:04:16;;;;;;;24.67;14.97;;;;;;;38.53;41.96;100642.91;6093629;23;20521;-74
2022/03/11 01:06:42;;;;;;;31.17;14.90;;;;;;;38.29;42.61;100633.28;6093751;23;20394;-76
2022/03/11 01:09:09;;;;;;;36.97;13.90;;;;;;;38.35;41.81;100626.59;6095563;23;20374;-75
2022/03/11 01:11:35;;;;;;;27.87;14.17;;;;;;;38.43;41.95;100620.44;6093656;23;20411;-76
2022/03/11 01:14:01;;;;;;;28.70;11.47;;;;;;;38.48;41.77;100616.75;6093967;23;20398;-74
2022/03/11 01:16:28;;;;;;;23.27;10.87;;;;;;;38.51;41.50;100610.72;6095202;23;20386;-74
2022/03/11 01:18:54;;;;;;;23.10;14.00;;;;;;;38.70;41.48;100608.50;6093753;23;20394;-74
2022/03/11 01:21:20;;;;;;;28.00;13.13;;;;;;;38.70;40.76;100608.50;6093796;23;20390;-74
2022/03/11 01:23:46;;;;;;;29.87;11.40;;;;;;;38.73;40.57;100598.97;6093393;23;20434;-75
2022/03/11 01:26:13;;;;;;;22.73;11.37;;;;;;;38.70;40.75;100591.44;6093922;23;20387;-76
2022/03/11 01:28:42;;;;;;;25.63;11.20;;;;;;;38.83;40.15;100595.16;6093852;23;20387;-76
2022/03/11 01:31:12;;;;;;;27.23;14.07;;;;;;;38.92;39.94;100596.75;6093654;23;20862;-74
2022/03/11 01:33:39;;;;;;;27.97;13.03;;;;;;;38.80;40.06;100587.66;6093905;23;20383;-74
2022/03/11 01:36:10;;;;;;;32.40;14.53;;;;;;;38.70;40.28;100588.72;6093787;23;20403;-76
2022/03/11 01:38:36;;;;;;;28.43;13.23;;;;;;;38.68;39.82;100583.63;6095204;23;20454;-76
2022/03/11 01:41:03;;;;;;;26.57;11.73;;;;;;;38.68;39.88;100578.22;6095360;23;20379;-76
2022/03/11 01:43:30;;;;;;;24.67;11.73;;;;;;;38.77;40.01;100585.56;6095325;23;20426;-75
2022/03/11 01:45:58;;;;;;;18.50;10.13;;;;;;;38.77;40.08;100578.22;6095592;23;20462;-77
2022/03/11 01:48:24;;;;;;;26.37;14.80;;;;;;;38.65;39.73;100572.63;6095538;23;20387;-76
2022/03/11 01:50:51;;;;;;;19.13;10.17;;;;;;;38.65;40.59;100578.03;6093908;23;20526;-76
2022/03/11 01:53:18;;;;;;;28.50;11.90;;;;;;;38.72;40.08;100575.69;6095326;23;20383;-76
2022/03/11 01:55:45;;;;;;;22.07;13.60;;;;;;;38.87;40.08;100572.50;6095172;23;20895;-74
2022/03/11 01:58:11;;;;;;;28.53;12.37;;;;;;;38.76;39.77;100570.44;6094156;23;20533;-74
2022/03/11 02:00:40;;;;;;;22.07;11.43;;;;;;;38.79;40.46;100567.06;6095354;23;20390;-76
2022/03/11 02:03:10;;;;;;;29.30;13.03;;;;;;;38.78;40.35;100565.47;6095194;23;20485;-75
2022/03/11 02:05:36;;;;;;;24.70;12.87;;;;;;;38.77;40.07;100569.31;6096994;23;20374;-74
2022/03/11 02:08:02;;;;;;;28.40;11.87;;;;;;;38.73;40.04;100573.75;6095392;23;20393;-76
2022/03/11 02:10:30;;;;;;;26.70;12.90;;;;;;;38.69;40.35;100568.97;6095661;23;20395;-75
2022/03/11 02:13:00;;;;;;;27.03;11.57;;;;;;;38.79;40.65;100567.84;6095450;23;20387;-75
2022/03/11 02:15:26;;;;;;;15.33;10.80;;;;;;;38.90;40.09;100560.22;6095366;23;20454;-75
2022/03/11 02:17:52;;;;;;;29.50;15.17;;;;;;;38.91;40.15;100561.81;6095190;23;20394;-74
2022/03/11 02:20:18;;;;;;;33.13;13.17;;;;;;;38.82;40.52;100563.72;6095269;23;20386;-74
2022/03/11 02:22:50;;;;;;;29.27;11.97;;;;;;;38.92;40.77;100564.22;6095019;23;20918;-74
2022/03/11 02:25:16;;;;;;;22.77;12.23;;;;;;;38.93;40.00;100560.38;6095046;23;20736;-81
2022/03/11 02:27:42;;;;;;;29.20;11.40;;;;;;;38.91;39.54;100549.03;6095285;23;20470;-75
2022/03/11 02:30:17;;;;;;;33.37;13.07;;;;;;;38.85;40.15;100547.59;6096538;23;20411;-74
2022/03/11 02:32:43;;;;;;;19.73;10.80;;;;;;;38.91;39.71;100545.53;6095149;23;20390;-74
2022/03/11 02:35:10;;;;;;;30.50;11.50;;;;;;;38.88;39.70;100543.47;6094879;23;20421;-74
2022/03/11 02:37:37;;;;;;;32.47;10.97;;;;;;;38.93;39.53;100540.59;6095426;23;20915;-74
2022/03/11 02:40:05;;;;;;;33.07;12.87;;;;;;;38.88;39.47;100549.69;6094884;23;20395;-76
2022/03/11 02:42:32;;;;;;;18.70;10.77;;;;;;;38.85;39.54;100541.38;6094807;23;20414;-74
2022/03/11 02:45:05;;;;;;;25.10;11.30;;;;;;;38.82;39.72;100536.63;6094883;23;20588;-74
2022/03/11 02:47:32;;;;;;;18.70;11.27;;;;;;;38.84;39.98;100539.78;6096642;23;20407;-76
2022/03/11 02:49:58;;;;;;;15.43;11.27;;;;;;;38.88;39.62;100532.63;6099779;23;20367;-76
2022/03/11 02:52:29;;;;;;;32.07;14.40;;;;;;;38.85;40.11;100527.81;6099585;23;20390;-74
2022/03/11 02:54:56;;;;;;;20.33;11.83;;;;;;;38.76;40.43;100535.19;6099720;23;20414;-76
2022/03/11 02:57:22;;;;;;;18.23;11.13;;;;;;;38.78;40.25;100528.31;6099592;23;20392;-76
2022/03/11 02:59:48;;;;;;;27.27;15.00;;;;;;;38.83;40.45;100524.66;6099831;23;20870;-74
2022/03/11 03:02:15;;;;;;;30.63;12.83;;;;;;;38.93;39.45;100529.75;6099760;23;20453;-76
2022/03/11 03:04:41;;;;;;;33.60;11.47;;;;;;;38.94;39.88;100534.06;6099439;23;20441;-74
2022/03/11 03:07:07;;;;;;;18.67;11.63;;;;;;;38.90;40.20;100538.50;6099756;23;20533;-74
2022/03/11 03:09:36;;;;;;;27.03;12.43;;;;;;;38.90;40.56;100538.50;6099467;23;20748;-76
2022/03/11 03:12:03;;;;;;;20.30;12.57;;;;;;;38.90;40.60;100535.81;6099682;23;20389;-75
2022/03/11 03:14:29;;;;;;;32.13;13.37;;;;;;;38.88;40.61;100540.75;6099566;23;20390;-76
2022/03/11 03:16:55;;;;;;;24.20;13.70;;;;;;;38.87;40.60;100541.88;6099436;23;20394;-73
2022/03/11 03:19:21;;;;;;;36.97;15.00;;;;;;;38.77;40.52;100543.00;6099490;23;20386;-74
2022/03/11 03:21:47;;;;;;;23.50;13.20;;;;;;;38.71;41.33;100544.22;6099015;23;20833;-74
2022/03/11 03:24:14;;;;;;;30.70;12.00;;;;;;;38.80;41.00;100547.78;6123829;23;20505;-74
2022/03/11 03:26:41;;;;;;;22.50;12.93;;;;;;;38.85;40.71;100549.53;6099603;23;20406;-74
2022/03/11 03:29:07;;;;;;;28.93;13.13;;;;;;;38.88;40.43;100541.56;6099123;23;20420;-77
2022/03/11 03:31:33;;;;;;;30.63;13.17;;;;;;;38.95;40.79;100539.16;6099395;23;20389;-76
2022/03/11 03:34:00;;;;;;;22.40;11.70;;;;;;;39.02;40.14;100538.66;6099343;23;20401;-74
2022/03/11 03:36:26;;;;;;;29.37;13.60;;;;;;;38.98;40.21;100543.16;6098947;23;20779;-76
2022/03/11 03:38:53;;;;;;;29.93;14.70;;;;;;;39.01;40.38;100536.28;6099190;23;20416;-76
2022/03/11 03:41:19;;;;;;;32.40;14.33;;;;;;;38.96;40.04;100539.94;6099239;23;20393;-75
2022/03/11 03:43:45;;;;;;;27.00;12.23;;;;;;;38.76;40.53;100551.44;6098944;23;21001;-77
2022/03/11 03:46:11;;;;;;;21.63;13.50;;;;;;;38.78;40.38;100541.88;6123598;23;20386;-76
2022/03/11 03:48:37;;;;;;;27.80;11.40;;;;;;;38.83;40.49;100543.63;6123487;23;20397;-74
2022/03/11 03:51:04;;;;;;;26.17;14.60;;;;;;;38.87;40.53;100548.09;6118607;23;20450;-74
2022/03/11 03:53:31;;;;;;;41.93;15.13;;;;;;;38.85;40.50;100541.38;6094192;23;20446;-74
2022/03/11 03:55:57;;;;;;;33.80;13.60;;;;;;;38.84;40.17;100543.31;6094321;23;20474;-74
2022/03/11 03:58:23;;;;;;;25.30;13.60;;;;;;;38.89;40.12;100542.34;6093289;23;20417;-74
2022/03/11 04:00:49;;;;;;;25.77;14.70;;;;;;;38.88;40.30;100538.84;6093436;23;20383;-76
2022/03/11 04:03:15;;;;;;;28.27;12.27;;;;;;;38.76;40.33;100540.59;6093821;23;20430;-76
2022/03/11 04:05:42;;;;;;;36.53;12.70;;;;;;;38.77;40.12;100536.78;6094045;23;20390;-76
2022/03/11 04:08:08;;;;;;;29.97;12.97;;;;;;;38.83;40.13;100530.88;6094268;23;20382;-74
2022/03/11 04:10:35;;;;;;;35.23;13.23;;;;;;;38.85;40.10;100533.25;6093906;23;20391;-74
2022/03/11 04:13:01;;;;;;;33.93;13.70;;;;;;;38.81;40.22;100537.75;6094213;23;20422;-74
2022/03/11 04:15:28;;;;;;;21.33;12.53;;;;;;;38.84;40.15;100535.16;6094185;23;20386;-75
2022/03/11 04:17:54;;;;;;;24.77;12.90;;;;;;;38.76;40.10;100537.91;6095749;23;20379;-74
2022/03/11 04:20:20;;;;;;;25.93;14.83;;;;;;;38.77;39.96;100540.28;6094136;23;20383;-74
2022/03/11 04:22:46;;;;;;;32.57;12.17;;;;;;;38.82;39.89;100545.53;6095105;23;20740;-75
2022/03/11 04:25:14;;;;;;;25.77;12.97;;;;;;;38.85;39.81;100544.09;6094357;23;20374;-74
2022/03/11 04:27:41;;;;;;;29.63;16.30;;;;;;;38.81;39.71;100554.00;6095506;23;20794;-74
2022/03/11 04:30:08;;;;;;;21.63;13.10;;;;;;;38.87;39.90;100555.44;6046392;23;20395;-74
2022/03/11 04:32:34;;;;;;;38.13;14.07;;;;;;;38.90;39.85;100538.50;6094060;23;20397;-76
2022/03/11 04:35:00;;;;;;;24.00;14.00;;;;;;;38.92;39.90;100544.44;6093973;23;20394;-75
2022/03/11 04:37:27;;;;;;;36.50;15.93;;;;;;;38.91;39.88;100537.38;6094061;23;20387;-74
2022/03/11 04:39:53;;;;;;;38.20;26.57;;;;;;;38.91;40.42;100537.38;6093857;23;20474;-74
2022/03/11 04:42:19;;;;;;;35.43;23.40;;;;;;;38.63;40.81;100540.41;6095593;23;20371;-76
2022/03/11 04:44:45;;;;;;;35.63;23.40;;;;;;;38.52;41.62;100541.84;6095456;23;20439;-74
2022/03/11 04:47:12;;;;;;;34.53;23.40;;;;;;;38.46;41.56;100531.47;6093966;23;20395;-74
2022/03/11 04:49:38;;;;;;;39.93;22.20;;;;;;;38.36;41.43;100532.56;6093796;23;20453;-74
2022/03/11 04:52:06;;;;;;;47.03;26.50;;;;;;;38.29;41.51;100537.66;6093344;23;20446;-76
2022/03/11 04:54:32;;;;;;;42.80;25.23;;;;;;;38.40;41.63;100542.47;6093846;23;20387;-74
2022/03/11 04:56:58;;;;;;;38.27;25.07;;;;;;;38.25;41.86;100539.41;6093872;23;20391;-75
2022/03/11 04:59:25;;;;;;;28.60;19.10;;;;;;;38.30;41.46;100545.47;6093049;23;20926;-76
2022/03/11 05:01:51;;;;;;;37.17;20.43;;;;;;;38.36;41.80;100548.81;6093679;23;20379;-74
2022/03/11 05:04:17;;;;;;;33.67;19.10;;;;;;;38.22;41.83;100548.13;6093734;23;20454;-76
2022/03/11 05:06:43;;;;;;;41.77;21.27;;;;;;;38.26;42.05;100551.81;6092441;23;20526;-75
2022/03/11 05:09:09;;;;;;;31.83;21.47;;;;;;;38.26;41.67;100551.81;6093845;23;20403;-75
2022/03/11 05:11:36;;;;;;;30.83;23.70;;;;;;;38.29;42.28;100554.72;6093715;23;20413;-75
2022/03/11 05:14:03;;;;;;;35.43;18.63;;;;;;;38.24;41.88;100565.66;6093911;23;20387;-76
2022/03/11 05:16:29;;;;;;;39.70;21.67;;;;;;;38.27;42.32;100567.00;6095100;23;20394;-74
2022/03/11 05:18:55;;;;;;;49.03;26.40;;;;;;;38.21;42.43;100573.63;6097547;23;20370;-74
2022/03/11 05:21:21;;;;;;;36.40;25.23;;;;;;;38.31;41.61;100573.38;6095787;23;20397;-74
2022/03/11 05:23:48;;;;;;;32.23;21.87;;;;;;;38.26;41.93;100573.50;6094137;23;20449;-76
2022/03/11 05:26:28;;;;;;;29.67;19.20;;;;;;;38.31;41.84;100582.31;6097504;23;20395;-76
2022/03/11 05:28:59;;;;;;;31.80;18.47;;;;;;;38.33;41.91;100595.53;6095684;23;20847;-76
2022/03/11 05:31:27;;;;;;;41.63;19.90;;;;;;;38.26;41.69;100597.88;6095636;23;20438;-74
2022/03/11 05:33:54;;;;;;;36.97;25.10;;;;;;;38.34;41.41;100599.81;6095557;23;20449;-74
2022/03/11 05:36:22;;;;;;;58.40;31.20;;;;;;;38.30;41.19;100602.34;6095643;23;20422;-78
2022/03/11 05:38:48;;;;;;;57.80;27.37;;;;;;;38.36;41.25;100606.50;6095664;23;20419;-76
2022/03/11 05:41:15;;;;;;;28.70;21.50;;;;;;;38.40;40.88;100609.41;6095394;23;20503;-73
2022/03/11 05:43:41;;;;;;;34.50;20.93;;;;;;;38.37;41.07;100615.47;6095943;23;20498;-72
2022/03/11 05:46:08;;;;;;;29.00;17.40;;;;;;;38.21;41.20;100619.69;6094362;23;20737;-73
2022/03/11 05:48:34;;;;;;;33.43;21.73;;;;;;;38.22;41.08;100630.19;6095329;23;20410;-74
2022/03/11 05:51:01;;;;;;;30.13;22.50;;;;;;;38.29;41.44;100627.84;6110528;23;20433;-74
2022/03/11 05:53:27;;;;;;;63.97;24.03;;;;;;;38.32;41.04;100632.66;6097447;23;20744;-75
2022/03/11 05:55:53;;;;;;;36.87;24.40;;;;;;;38.31;41.15;100636.50;6098225;23;20399;-73
2022/03/11 05:58:20;;;;;;;39.53;21.00;;;;;;;38.03;41.69;100644.00;6099617;23;20410;-71
2022/03/11 06:00:46;;;;;;;35.83;20.50;;;;;;;37.91;42.17;100649.19;6124947;23;20363;-74
2022/03/11 06:03:12;;;;;;;54.40;25.10;;;;;;;37.89;41.79;100654.13;6125866;23;20445;-75
2022/03/11 06:05:39;;;;;;;43.40;22.53;;;;;;;37.95;41.95;100649.38;6124022;23;20410;-75
2022/03/11 06:08:05;;;;;;;51.80;22.37;;;;;;;37.99;41.85;100653.03;6124833;23;20366;-75
2022/03/11 06:10:31;;;;;;;66.27;30.87;;;;;;;38.06;41.97;100656.91;6099096;23;20432;-78
2022/03/11 06:12:57;;;;;;;60.80;34.17;;;;;;;38.18;41.47;100662.56;6099465;23;20390;-76
2022/03/11 06:15:23;;;;;;;53.03;32.43;;;;;;;38.14;41.74;100661.56;6099218;23;20870;-75
2022/03/11 06:17:50;;;;;;;51.93;29.77;;;;;;;38.17;41.43;100662.84;6098996;23;20390;-75
2022/03/11 06:20:16;;;;;;;55.87;32.30;;;;;;;38.19;41.68;100663.34;6126036;23;20362;-72
2022/03/11 06:22:50;;;;;;;50.57;30.43;;;;;;;38.19;41.50;100668.78;6124391;23;20457;-74
2022/03/11 06:25:20;;;;;;;79.63;32.63;;;;;;;38.23;41.55;100671.63;6099973;23;20410;-74
2022/03/11 06:27:46;;;;;;;68.37;32.93;;;;;;;38.23;41.29;100666.22;6126038;23;20393;-74
2022/03/11 06:30:14;;;;;;;78.90;35.67;;;;;;;38.21;41.65;100673.88;6099874;23;20390;-74
2022/03/11 06:32:45;;;;;;;52.90;29.00;;;;;;;38.23;41.43;100674.34;6099762;23;20398;-71
2022/03/11 06:35:13;;;;;;;62.00;33.60;;;;;;;38.27;41.27;100675.34;6125688;23;20371;-72
2022/03/11 06:37:41;;;;;;;75.27;32.83;;;;;;;38.41;40.94;100676.03;6099844;23;20855;-74
2022/03/11 06:40:08;;;;;;;96.03;39.57;;;;;;;38.46;40.98;100675.91;6099401;23;20949;-74
2022/03/11 06:42:36;;;;;;;76.57;36.53;;;;;;;38.51;40.88;100677.66;6099297;23;20460;-74
2022/03/11 06:45:03;;;;;;;63.03;32.77;;;;;;;38.49;40.69;100678.00;6099674;23;20956;-74
2022/03/11 06:47:29;;;;;;;77.27;35.57;;;;;;;38.37;40.81;100685.91;6099616;23;20393;-74
2022/03/11 06:49:56;;;;;;;58.77;32.80;;;;;;;38.42;40.55;100688.47;6124253;23;20464;-72
2022/03/11 06:52:22;;;;;;;72.57;31.70;;;;;;;38.46;40.59;100684.03;6099719;23;20382;-73
2022/03/11 06:54:48;;;;;;;60.37;35.90;;;;;;;38.47;40.74;100682.13;6124007;23;20437;-74
2022/03/11 06:57:17;;;;;;;74.17;39.00;;;;;;;38.43;41.01;100695.50;6099527;23;20465;-73
2022/03/11 06:59:47;;;;;;;86.13;36.27;;;;;;;38.46;40.57;100688.66;6098659;23;20390;-75
2022/03/11 07:02:14;;;;;;;69.20;35.83;;;;;;;38.45;40.51;100701.41;6098935;23;20444;-76
2022/03/11 07:04:41;;;;;;;62.73;32.77;;;;;;;38.44;40.84;100697.09;6098549;23;20434;-73
2022/03/11 07:07:07;;;;;;;65.30;34.73;;;;;;;38.47;40.26;100701.88;6098913;23;20450;-73
2022/03/11 07:09:34;;;;;;;69.00;36.57;;;;;;;38.48;40.92;100713.50;6098580;23;20402;-73
2022/03/11 07:12:02;;;;;;;58.37;34.37;;;;;;;38.50;40.78;100714.81;6098606;23;20390;-73
2022/03/11 07:14:35;;;;;;;66.00;37.53;;;;;;;38.51;40.66;100708.28;6125086;23;20434;-72
2022/03/11 07:17:06;;;;;;;85.17;48.47;;;;;;;38.58;40.78;100721.38;6098725;23;20805;-75
2022/03/11 07:19:33;;;;;;;79.37;47.33;;;;;;;38.59;40.55;100720.25;6099444;23;20456;-75
2022/03/11 07:22:03;;;;;;;82.23;45.23;;;;;;;38.59;40.60;100722.97;6098756;23;20405;-71
2022/03/11 07:24:29;;;;;;;91.87;43.47;;;;;;;38.63;40.88;100727.44;6098895;23;20434;-72
2022/03/11 07:26:55;;;;;;;89.67;45.73;;;;;;;38.62;40.56;100725.06;6099035;23;20390;-71
2022/03/11 07:29:22;;;;;;;82.40;47.67;;;;;;;38.65;40.82;100733.34;6098916;23;20422;-73
2022/03/11 07:31:48;;;;;;;69.33;40.37;;;;;;;38.68;40.70;100734.66;6098510;23;20386;-71
2022/03/11 07:34:16;;;;;;;67.20;41.20;;;;;;;38.70;40.70;100741.34;6097668;23;20410;-70
2022/03/11 07:36:43;;;;;;;81.90;40.60;;;;;;;38.74;40.80;100743.47;6097942;23;20756;-71
2022/03/11 07:39:10;;;;;;;63.33;34.93;;;;;;;38.76;40.68;100744.75;6097675;23;20991;-72
2022/03/11 07:41:37;;;;;;;68.53;37.13;;;;;;;38.79;40.53;100748.72;6098755;23;20468;-72
2022/03/11 07:44:04;;;;;;;62.77;31.83;;;;;;;38.83;40.47;100755.94;6098997;23;20468;-74
2022/03/11 07:46:31;;;;;;;59.73;35.70;;;;;;;38.78;40.90;100752.56;6098776;23;20448;-74
2022/03/11 07:48:58;;;;;;;63.27;31.20;;;;;;;38.84;40.93;100762.16;6099110;23;20406;-72
2022/03/11 07:51:25;;;;;;;48.80;23.73;;;;;;;38.89;40.95;100757.38;6098822;23;20441;-72
2022/03/11 07:53:52;;;;;;;39.67;23.43;;;;;;;38.89;40.62;100754.66;6099396;23;20434;-72
2022/03/11 07:56:18;;;;;;;42.17;21.80;;;;;;;38.91;40.82;100768.69;6099193;23;20393;-72
2022/03/11 07:58:44;;;;;;;37.90;18.40;;;;;;;38.91;40.66;100765.19;6098850;23;20534;-72
2022/03/11 08:01:12;;;;;;;34.10;19.97;;;;;;;38.90;40.77;100767.09;6125171;23;20358;-72
2022/03/11 08:03:41;;;;;;;41.60;19.97;;;;;;;38.95;41.05;100769.69;6098766;23;20441;-73
2022/03/11 08:06:08;;;;;;;43.90;22.03;;;;;;;39.00;40.89;100768.75;6098858;23;20385;-72
2022/03/11 08:08:39;;;;;;;38.10;22.00;;;;;;;38.93;41.28;100771.91;6123217;23;20374;-73
2022/03/11 08:11:08;;;;;;;40.33;21.30;;;;;;;38.92;40.82;100769.53;6098993;23;20453;-72
2022/03/11 08:13:34;;;;;;;38.23;19.97;;;;;;;38.99;40.61;100775.28;6099025;23;20430;-74
2022/03/11 08:16:01;;;;;;;46.17;23.07;;;;;;;38.94;41.06;100773.50;6098802;23;20418;-74
2022/03/11 08:18:27;;;;;;;40.50;19.63;;;;;;;38.99;40.75;100769.84;6099001;23;20379;-74
2022/03/11 08:20:54;;;;;;;40.43;21.33;;;;;;;39.04;41.17;100779.72;6098936;23;20386;-73
2022/03/11 08:23:20;;;;;;;41.20;17.73;;;;;;;39.02;40.82;100781.97;6098727;23;20491;-72
2022/03/11 08:25:47;;;;;;;34.73;16.30;;;;;;;39.02;40.26;100782.78;6099010;23;20405;-74
2022/03/11 08:28:13;;;;;;;31.33;17.47;;;;;;;39.03;40.43;100778.94;6098865;23;20418;-73
2022/03/11 08:30:41;;;;;;;29.33;15.27;;;;;;;39.09;40.17;100779.59;6125016;23;20350;-71
2022/03/11 08:33:08;;;;;;;25.17;14.73;;;;;;;39.14;40.04;100782.97;6098816;23;20437;-72
2022/03/11 08:35:34;;;;;;;42.90;17.10;;;;;;;39.22;39.50;100782.19;6098958;23;20414;-71
2022/03/11 08:38:03;;;;;;;30.07;16.13;;;;;;;39.23;39.67;100789.25;6098886;23;20957;-72
2022/03/11 08:40:30;;;;;;;42.43;17.63;;;;;;;39.25;39.63;100782.69;6124883;23;20418;-71
2022/03/11 08:42:56;;;;;;;33.00;15.53;;;;;;;39.27;39.45;100797.53;6098625;23;20406;-74
2022/03/11 08:45:22;;;;;;;27.70;16.80;;;;;;;39.23;39.48;100810.94;6098813;23;20477;-74
2022/03/11 08:47:50;;;;;;;45.97;17.53;;;;;;;39.22;39.77;100808.53;6098925;23;20969;-71
2022/03/11 08:50:17;;;;;;;44.43;17.10;;;;;;;39.27;39.77;100804.88;6096651;23;20582;-72
2022/03/11 08:52:44;;;;;;;23.20;15.50;;;;;;;39.31;39.27;100816.69;6098778;23;20402;-72
2022/03/11 08:55:12;;;;;;;41.77;19.93;;;;;;;39.28;39.35;100822.75;6098786;23;20398;-72
2022/03/11 08:57:39;;;;;;;35.17;15.77;;;;;;;39.33;39.29;100817.97;6124688;23;20421;-72
2022/03/11 09:00:08;;;;;;;44.23;18.47;;;;;;;39.27;40.03;100824.66;6098542;23;20444;-71
2022/03/11 09:02:38;;;;;;;23.90;15.13;;;;;;;39.33;39.62;100820.69;6097952;23;20444;-73
2022/03/11 09:05:06;;;;;;;24.00;15.27;;;;;;;39.35;39.42;100825.78;6098562;23;20858;-72
2022/03/11 09:07:32;;;;;;;27.87;16.80;;;;;;;39.39;39.63;100824.84;6098411;23;20382;-72
2022/03/11 09:10:00;;;;;;;38.07;15.30;;;;;;;39.41;39.56;100835.38;6098732;23;20397;-72
2022/03/11 09:12:26;;;;;;;24.67;13.93;;;;;;;39.45;39.55;100830.94;6098666;23;20386;-74
2022/03/11 09:14:53;;;;;;;27.33;14.97;;;;;;;39.44;39.81;100829.34;6098562;23;20382;-73
2022/03/11 09:17:19;;;;;;;26.13;17.77;;;;;;;39.45;39.76;100831.72;6098678;23;20393;-73
2022/03/11 09:19:46;;;;;;;21.53;14.20;;;;;;;39.45;39.80;100833.63;6098654;23;20383;-73
2022/03/11 09:22:13;;;;;;;38.00;13.40;;;;;;;39.44;39.33;100837.47;6098598;23;20406;-74
2022/03/11 09:24:42;;;;;;;40.03;14.03;;;;;;;39.42;39.77;100839.72;6098691;23;20430;-73
2022/03/11 09:27:11;;;;;;;27.17;13.93;;;;;;;39.40;39.18;100847.34;6098703;23;20847;-74
2022/03/11 09:29:39;;;;;;;20.67;11.50;;;;;;;39.48;39.14;100854.72;6098845;23;20382;-74
2022/03/11 09:32:07;;;;;;;27.63;15.10;;;;;;;39.47;38.92;100847.69;6098673;23;20446;-74
2022/03/11 09:34:34;;;;;;;26.50;11.47;;;;;;;39.54;38.94;100842.59;6098775;23;20386;-73
2022/03/11 09:37:00;;;;;;;34.37;11.93;;;;;;;39.55;38.83;100851.56;6125311;23;20897;-74
2022/03/11 09:39:27;;;;;;;35.37;13.10;;;;;;;39.55;38.65;100848.84;6122856;23;20393;-71
2022/03/11 09:41:53;;;;;;;24.23;12.70;;;;;;;39.61;38.77;100855.75;6124547;23;20421;-74
2022/03/11 09:44:20;;;;;;;31.87;12.00;;;;;;;39.61;38.46;100858.44;6122785;23;20442;-76
2022/03/11 09:46:47;;;;;;;29.97;13.57;;;;;;;39.67;39.04;100862.63;6098753;23;20432;-73
2022/03/11 09:49:17;;;;;;;41.20;13.10;;;;;;;39.66;38.67;100858.31;6098689;23;20389;-73
2022/03/11 09:51:47;;;;;;;32.80;13.10;;;;;;;39.63;38.42;100867.88;6093398;23;20950;-74
2022/03/11 09:54:15;;;;;;;23.83;12.90;;;;;;;39.58;38.82;100873.41;6093777;23;20386;-75
2022/03/11 09:56:43;;;;;;;31.50;11.60;;;;;;;39.70;38.37;100861.97;6093672;23;20867;-76
2022/03/11 09:59:11;;;;;;;23.53;13.63;;;;;;;39.63;38.61;100859.72;6093667;23;20906;-74
2022/03/11 10:01:42;;;;;;;28.70;14.90;;;;;;;39.69;38.82;100861.16;6094660;23;20387;-74
2022/03/11 10:04:09;;;;;;;27.40;14.37;;;;;;;39.60;38.85;100865.81;6095360;23;20446;-75
2022/03/11 10:06:38;;;;;;;24.00;14.07;;;;;;;39.70;38.66;100867.38;6097071;23;20966;-73
2022/03/11 10:09:04;;;;;;;43.53;18.83;;;;;;;39.81;38.29;100865.97;6095691;23;20502;-73
2022/03/11 10:11:31;;;;;;;37.50;13.57;;;;;;;39.83;38.14;100868.34;6095589;23;20915;-73
2022/03/11 10:14:08;;;;;;;29.80;13.57;;;;;;;39.85;37.90;100868.84;6095298;23;20410;-73
2022/03/11 10:16:36;;;;;;;34.00;15.27;;;;;;;39.82;38.17;100873.00;6095258;23;20852;-74
2022/03/11 10:19:07;;;;;;;30.13;14.87;;;;;;;39.86;38.14;100873.16;6096908;23;20359;-72
2022/03/11 10:21:42;;;;;;;28.00;13.13;;;;;;;39.80;38.22;100875.22;6094995;23;20411;-72
2022/03/11 10:24:14;;;;;;;32.80;15.57;;;;;;;39.83;38.79;100877.28;6095079;23;20429;-74
2022/03/11 10:26:42;;;;;;;23.90;14.27;;;;;;;39.89;38.35;100870.59;6095310;23;20402;-74
2022/03/11 10:29:14;;;;;;;40.73;14.33;;;;;;;39.90;38.28;100876.81;6095141;23;20470;-73
2022/03/11 10:31:43;;;;;;;38.67;15.23;;;;;;;39.84;38.76;100868.06;6096757;23;20402;-73
2022/03/11 10:34:28;;;;;;;32.83;14.27;;;;;;;39.83;38.28;100871.88;6095207;23;20405;-72
2022/03/11 10:36:59;;;;;;;30.10;14.40;;;;;;;39.97;38.22;100869.00;6095116;23;20461;-73
2022/03/11 10:39:29;;;;;;;45.63;21.13;;;;;;;39.94;37.73;100864.19;6095015;23;20426;-74
2022/03/11 10:41:57;;;;;;;28.73;15.87;;;;;;;40.01;37.79;100865.31;6095089;23;20397;-74
2022/03/11 10:44:26;;;;;;;47.27;15.27;;;;;;;39.97;37.66;100863.56;6094653;23;20447;-72
2022/03/11 10:47:00;;;;;;;25.57;13.13;;;;;;;40.00;37.77;100868.34;6095141;23;20394;-73
2022/03/11 10:49:33;;;;;;;34.50;14.47;;;;;;;39.99;37.79;100864.84;6095034;23;20515;-73
2022/03/11 10:52:01;;;;;;;28.73;14.63;;;;;;;40.04;37.35;100855.78;6094923;23;20450;-72
2022/03/11 10:54:29;;;;;;;30.60;14.43;;;;;;;40.08;37.83;100862.13;6094853;23;20403;-71
2022/03/11 10:57:07;;;;;;;46.30;18.73;;;;;;;40.03;38.48;100859.59;6094889;23;20830;-72
2022/03/11 10:59:33;;;;;;;31.63;15.97;;;;;;;40.12;38.29;100856.88;6094864;23;20747;-72
2022/03/11 11:02:00;;;;;;;30.00;16.77;;;;;;;40.08;38.22;100854.00;6094700;23;20424;-72
2022/03/11 11:04:26;;;;;;;29.90;14.93;;;;;;;40.03;38.41;100856.88;6096077;23;20807;-72
2022/03/11 11:06:54;;;;;;;23.60;14.03;;;;;;;40.01;38.53;100850.94;6094740;23;20383;-72
2022/03/11 11:09:23;;;;;;;31.53;15.10;;;;;;;40.02;38.44;100841.66;6094529;23;20387;-72